METAR AND TAF INFORMATION
METAR FOR EGAC
ADDS - METARS form results

(1515 UTC 07 August 2020)
Data provider http://aviationweather.gov/metar/data/
 
METAR text: EGAC 071450Z AUTO 27008KT 9999 SCT015/// SCT022/// BKN026/// 18/16 Q1016 RERA
Conditions at: EGAC (BELFAST HARBOUR , GB) observed 1450 UTC 07 August 2020
Temperature: 18.0°C (64°F)
Dewpoint: 16.0°C (61°F) [RH = 88%]
Pressure (altimeter): 30.00 inches Hg (1016.0 mb)
Winds: from the W (270 degrees) at 9 MPH (8 knots; 4.1 m/s)
Visibility: 6 or more miles (10+ km)
Ceiling: 2600 feet AGL
Clouds: scattered clouds at 1500 feet AGL
scattered clouds at 2200 feet AGL
broken clouds at 2600 feet AGL
Weather: no significant weather observed at this time

METAR text: EGAC 071420Z AUTO 19010KT 9999 -RA SCT019/// BKN028/// BKN040/// 20/18 Q1015 RERA
Conditions at: EGAC (BELFAST HARBOUR , GB) observed 1420 UTC 07 August 2020
Temperature: 20.0°C (68°F)
Dewpoint: 18.0°C (64°F) [RH = 88%]
Pressure (altimeter): 29.97 inches Hg (1015.0 mb)
Winds: from the S (190 degrees) at 12 MPH (10 knots; 5.1 m/s)
Visibility: 6 or more miles (10+ km)
Ceiling: 2800 feet AGL
Clouds: scattered clouds at 1900 feet AGL
broken clouds at 2800 feet AGL
broken clouds at 4000 feet AGL
Weather: -RA  (light rain)

Forecast for: EGAC (BELFAST HARBOUR , GB)
Text: TAF EGAC 071402Z 0715/0724 18010KT 9999 FEW014 SCT030
Forecast period: 1500 UTC 07 August 2020 to 0000 UTC 08 August 2020
Forecast type: FROM: standard forecast or significant change
Winds: from the S (180 degrees) at 12 MPH (10 knots; 5.1 m/s)
Visibility: 6 or more miles (10+ km)
Ceiling: at least 12,000 feet AGL
Clouds: few clouds at 1400 feet AGL
scattered clouds at 3000 feet AGL
Weather: no significant weather forecast for this period
Text: BECMG 0715/0717 27007KT
Forecast period: 1500 UTC 07 August 2020 to 0000 UTC 08 August 2020
Forecast type: BECOMING: Conditions expected to become as follows by 1700 UTC 07 August 2020
Winds: from the W (270 degrees) at 8 MPH (7 knots; 3.6 m/s)
Visibility: 6 or more miles (10+ km)
Ceiling: at least 12,000 feet AGL
Clouds: few clouds at 1400 feet AGL
scattered clouds at 3000 feet AGL
Weather: no significant weather forecast for this period
Text: TEMPO 0715/0716 3000 +RA BKN012
Forecast period: 1500 to 1600 UTC 07 August 2020
Forecast type: TEMPORARY: The following changes expected for less than half the time period
Visibility: 1.86 miles (2.99 km)
Ceiling: 1200 feet AGL
Clouds: broken clouds at 1200 feet AGL
Weather: +RA  (heavy rain)

 AIRPORT MAP

 RUNWAY INFORMATION
Runway 04 Runway length 6001 ft Runway width 148 ft
Runway elevation 13 ft Runway displaced threshold 303 ft Runway heading 35
Runway 22 Runway length 6001 ft Runway width 148 ft
Runway elevation 12 ft Runway displaced threshold 0 ft Runway heading 215

 AIRPORT FREQUENCIES
Type APP Name BELFAST AP Frequency 130.85 MHZ
Type ATIS Name ATIS Frequency 136.625 MHZ
Type TWR Name BELFAST TW Frequency 122.825 MHZ

 AIRPORT NEAR NAVIGATION AIDS